createdAt,value
2018-03-27T00:01:42.969Z,67.50
2018-03-27T00:04:11.142Z,67.70
2018-03-27T00:06:39.819Z,68.20
2018-03-27T00:09:08.609Z,68.20
2018-03-27T00:11:37.035Z,68.50
2018-03-27T00:14:05.932Z,68.30
2018-03-27T00:16:34.812Z,68.30
2018-03-27T00:19:03.561Z,69.80
2018-03-27T00:21:32.104Z,69.60
2018-03-27T00:24:00.340Z,70.10
2018-03-27T00:26:28.350Z,70.50
2018-03-27T00:29:08.253Z,70.50
2018-03-27T00:31:48.709Z,70.90
2018-03-27T00:34:28.404Z,70.70
2018-03-27T00:37:11.387Z,70.00
2018-03-27T00:39:51.831Z,70.00
2018-03-27T00:42:33.824Z,70.00
2018-03-27T00:45:05.586Z,70.40
2018-03-27T00:47:33.762Z,70.80
2018-03-27T00:50:02.359Z,71.00
2018-03-27T00:52:30.914Z,71.30
2018-03-27T00:54:58.877Z,71.50
2018-03-27T00:57:27.046Z,71.90
2018-03-27T00:59:54.746Z,72.30
2018-03-27T01:02:22.786Z,71.60
2018-03-27T01:04:50.523Z,71.40
2018-03-27T01:07:18.746Z,71.60
2018-03-27T01:09:46.738Z,71.50
2018-03-27T01:12:14.726Z,71.10
2018-03-27T01:14:44.262Z,70.10
2018-03-27T01:17:12.221Z,70.00
2018-03-27T01:19:40.126Z,69.80
2018-03-27T01:22:08.276Z,69.90
2018-03-27T01:24:36.224Z,69.60
2018-03-27T01:27:04.367Z,69.60
2018-03-27T01:29:32.279Z,69.40
2018-03-27T01:32:00.960Z,69.70
2018-03-27T01:34:28.971Z,70.10
2018-03-27T01:36:56.885Z,70.10
2018-03-27T01:39:24.846Z,70.60
2018-03-27T01:41:54.582Z,71.50
2018-03-27T01:44:22.967Z,71.90
2018-03-27T01:46:50.931Z,72.50
2018-03-27T01:49:18.837Z,73.00
2018-03-27T01:51:46.684Z,73.30
2018-03-27T01:54:14.733Z,74.10
2018-03-27T01:56:42.683Z,74.60
2018-03-27T01:59:10.503Z,74.90
2018-03-27T02:01:38.417Z,75.40
2018-03-27T02:04:06.275Z,75.70
2018-03-27T02:06:34.053Z,76.10
2018-03-27T02:09:02.218Z,76.20
2018-03-27T02:11:35.613Z,76.20
2018-03-27T02:14:09.261Z,76.40
2018-03-27T02:16:42.670Z,76.50
2018-03-27T02:19:16.180Z,77.00
2018-03-27T02:21:47.259Z,77.10
2018-03-27T02:24:15.933Z,77.20
2018-03-27T02:26:45.346Z,77.60
2018-03-27T02:29:15.104Z,77.00
2018-03-27T02:31:43.112Z,77.40
2018-03-27T02:34:12.707Z,77.60
2018-03-27T02:36:40.813Z,77.70
2018-03-27T02:39:09.707Z,78.20
2018-03-27T02:41:37.559Z,78.30
2018-03-27T02:44:05.507Z,78.20
2018-03-27T02:46:33.682Z,78.70
2018-03-27T02:49:03.172Z,78.50
2018-03-27T02:51:31.158Z,78.70
2018-03-27T02:54:00.214Z,78.60
2018-03-27T02:56:28.148Z,78.90
2018-03-27T02:58:56.200Z,79.00
2018-03-27T03:01:24.160Z,79.00
2018-03-27T03:03:51.915Z,79.00
2018-03-27T03:06:20.002Z,79.20
2018-03-27T03:08:47.998Z,79.30
2018-03-27T03:11:16.059Z,79.30
2018-03-27T03:13:44.116Z,79.00
2018-03-27T03:16:12.739Z,79.50
2018-03-27T03:18:40.793Z,79.80
2018-03-27T03:21:09.433Z,79.80
2018-03-27T03:23:37.179Z,79.80
2018-03-27T03:26:06.099Z,80.00
2018-03-27T03:28:35.071Z,80.00
2018-03-27T03:31:03.914Z,79.80
2018-03-27T03:33:31.751Z,79.90
2018-03-27T03:36:00.201Z,80.00
2018-03-27T03:38:28.035Z,79.90
2018-03-27T03:40:55.838Z,80.00
2018-03-27T03:43:23.666Z,80.50
2018-03-27T03:45:52.171Z,79.60
2018-03-27T03:48:19.909Z,80.00
2018-03-27T03:50:47.676Z,79.80
2018-03-27T03:53:15.603Z,79.60
2018-03-27T03:55:44.790Z,79.60
2018-03-27T03:58:13.975Z,79.60
2018-03-27T04:00:41.661Z,79.70
2018-03-27T04:03:10.442Z,79.60
2018-03-27T04:05:41.254Z,79.50
2018-03-27T04:08:10.233Z,79.60
2018-03-27T04:10:38.555Z,79.80
2018-03-27T04:13:06.385Z,79.70
2018-03-27T04:15:35.368Z,79.70
2018-03-27T04:18:03.465Z,79.80
2018-03-27T04:20:34.090Z,79.80
2018-03-27T04:23:02.284Z,79.70
2018-03-27T04:25:30.087Z,79.80
2018-03-27T04:27:58.277Z,79.70
2018-03-27T04:30:26.098Z,79.70
2018-03-27T04:32:54.079Z,79.70
2018-03-27T04:35:22.800Z,79.70
2018-03-27T04:37:50.571Z,79.90
2018-03-27T04:40:19.092Z,80.00
2018-03-27T04:42:47.015Z,79.90
2018-03-27T04:45:14.865Z,79.70
2018-03-27T04:47:42.731Z,80.10
2018-03-27T04:50:10.716Z,80.00
2018-03-27T04:52:39.375Z,80.10
2018-03-27T04:55:07.423Z,80.00
2018-03-27T04:57:35.601Z,80.00
2018-03-27T05:00:03.670Z,79.90
2018-03-27T05:02:31.474Z,79.70
2018-03-27T05:04:59.410Z,79.70
2018-03-27T05:07:27.436Z,79.70
2018-03-27T05:09:55.587Z,79.40
2018-03-27T05:12:23.555Z,79.50
2018-03-27T05:14:51.675Z,79.60
2018-03-27T05:17:19.897Z,79.70
2018-03-27T05:19:48.704Z,79.60
2018-03-27T05:22:16.495Z,79.60
2018-03-27T05:24:44.161Z,79.40
2018-03-27T05:27:11.880Z,79.30
2018-03-27T05:29:39.733Z,79.10
2018-03-27T05:32:07.726Z,79.10
2018-03-27T05:34:36.373Z,78.30
2018-03-27T05:37:06.867Z,78.30
2018-03-27T05:39:34.759Z,78.40
2018-03-27T05:42:03.819Z,78.00
2018-03-27T05:44:31.830Z,78.00
2018-03-27T05:47:04.989Z,77.90
2018-03-27T05:49:33.039Z,77.70
2018-03-27T05:52:01.283Z,77.90
2018-03-27T05:54:29.302Z,77.70
2018-03-27T05:56:57.400Z,77.50
2018-03-27T05:59:26.069Z,77.10
2018-03-27T06:01:54.047Z,77.00
2018-03-27T06:04:22.996Z,77.40
2018-03-27T06:06:51.008Z,77.30
2018-03-27T06:09:20.433Z,77.30
2018-03-27T06:11:48.612Z,77.40
2018-03-27T06:14:16.515Z,77.40
2018-03-27T06:16:44.521Z,77.20
2018-03-27T06:19:12.315Z,76.80
2018-03-27T06:21:39.921Z,76.80
2018-03-27T06:24:07.581Z,76.80
2018-03-27T06:26:35.381Z,76.80
2018-03-27T06:29:06.850Z,76.90
2018-03-27T06:31:34.822Z,76.60
2018-03-27T06:34:02.881Z,76.80
2018-03-27T06:36:30.815Z,76.30
2018-03-27T06:38:58.807Z,75.80
2018-03-27T06:41:26.655Z,75.90
2018-03-27T06:43:54.625Z,75.90
2018-03-27T06:46:22.373Z,76.40
2018-03-27T06:48:51.221Z,76.50
2018-03-27T06:51:19.080Z,76.80
2018-03-27T06:53:47.085Z,77.60
2018-03-27T06:56:15.075Z,77.90
2018-03-27T06:58:42.964Z,78.40
2018-03-27T07:01:10.806Z,78.40
2018-03-27T07:03:38.648Z,78.30
2018-03-27T07:06:06.397Z,77.50
2018-03-27T07:08:34.393Z,78.10
2018-03-27T07:11:03.390Z,78.20
2018-03-27T07:13:31.253Z,78.10
2018-03-27T07:15:59.002Z,77.40
2018-03-27T07:18:27.662Z,78.00
2018-03-27T07:20:56.477Z,77.90
2018-03-27T07:23:24.590Z,77.70
2018-03-27T07:25:53.075Z,78.20
2018-03-27T07:28:21.098Z,79.10
2018-03-27T07:30:49.793Z,77.90
2018-03-27T07:33:17.823Z,77.90
2018-03-27T07:35:45.850Z,79.20
2018-03-27T07:38:13.726Z,78.90
2018-03-27T07:40:42.479Z,78.10
2018-03-27T07:43:10.426Z,77.90
2018-03-27T07:45:38.340Z,77.10
2018-03-27T07:48:06.195Z,76.20
2018-03-27T07:50:34.935Z,75.40
2018-03-27T07:53:03.035Z,74.40
2018-03-27T07:55:30.931Z,74.30
2018-03-27T07:57:58.867Z,74.70
2018-03-27T08:00:26.893Z,74.40
2018-03-27T08:02:55.681Z,74.40
2018-03-27T08:05:25.416Z,73.10
2018-03-27T08:07:53.411Z,73.80
2018-03-27T08:10:21.153Z,73.70
2018-03-27T08:12:49.143Z,73.40
2018-03-27T08:15:17.084Z,72.90
2018-03-27T08:17:45.573Z,72.20
2018-03-27T08:20:13.997Z,71.90
2018-03-27T08:22:43.273Z,72.70
2018-03-27T08:25:11.686Z,72.00
2018-03-27T08:27:39.615Z,71.80
2018-03-27T08:30:08.115Z,72.70
2018-03-27T08:32:36.961Z,72.00
2018-03-27T08:35:09.045Z,71.90
2018-03-27T08:37:38.095Z,69.90
2018-03-27T08:40:06.172Z,69.40
2018-03-27T08:42:34.219Z,69.70
2018-03-27T08:45:02.843Z,68.90
2018-03-27T08:47:30.849Z,68.20
2018-03-27T08:49:59.339Z,67.30
2018-03-27T08:52:28.077Z,66.70
2018-03-27T08:54:56.567Z,66.70
2018-03-27T08:57:24.527Z,66.00
2018-03-27T08:59:52.464Z,68.00
2018-03-27T09:02:20.469Z,67.30
2018-03-27T09:04:48.343Z,67.60
2018-03-27T09:07:16.651Z,67.30
2018-03-27T09:09:44.685Z,67.10
2018-03-27T09:12:12.695Z,65.70
2018-03-27T09:14:40.432Z,66.40
2018-03-27T09:17:08.242Z,64.30
2018-03-27T09:19:36.893Z,63.40
2018-03-27T09:22:04.759Z,63.40
2018-03-27T09:24:32.632Z,64.00
2018-03-27T09:27:00.478Z,63.20
2018-03-27T09:29:28.359Z,63.10
2018-03-27T09:31:56.343Z,63.30
2018-03-27T09:34:24.306Z,63.40
2018-03-27T09:36:52.296Z,63.10
2018-03-27T09:39:20.997Z,61.40
2018-03-27T09:41:49.060Z,61.20
2018-03-27T09:44:17.905Z,60.60
2018-03-27T09:46:45.933Z,60.50
2018-03-27T09:49:14.360Z,60.20
2018-03-27T09:51:42.234Z,59.50
2018-03-27T09:54:10.061Z,59.50
2018-03-27T09:56:37.868Z,59.10
2018-03-27T09:59:05.636Z,59.60
2018-03-27T10:01:33.515Z,58.90
2018-03-27T10:04:01.562Z,58.60
2018-03-27T10:06:29.321Z,58.30
2018-03-27T10:08:57.305Z,58.00
2018-03-27T10:11:25.236Z,58.00
2018-03-27T10:13:53.127Z,57.50
2018-03-27T10:16:21.177Z,56.60
2018-03-27T10:18:49.145Z,56.50
2018-03-27T10:21:17.159Z,56.70
2018-03-27T10:23:45.033Z,56.40
2018-03-27T10:26:13.059Z,56.40
2018-03-27T10:28:40.909Z,55.70
2018-03-27T10:31:09.139Z,56.30
2018-03-27T10:33:37.087Z,55.90
2018-03-27T10:36:04.908Z,54.80
2018-03-27T10:38:33.516Z,53.00
2018-03-27T10:41:02.177Z,53.00
2018-03-27T10:43:30.035Z,53.10
2018-03-27T10:45:57.957Z,53.40
2018-03-27T10:48:25.942Z,54.20
2018-03-27T10:50:53.859Z,53.70
2018-03-27T10:53:21.842Z,53.60
2018-03-27T10:55:49.846Z,52.20
2018-03-27T10:58:17.702Z,52.40
2018-03-27T11:00:45.681Z,52.00
2018-03-27T11:03:13.677Z,53.00
2018-03-27T11:05:41.775Z,52.30
2018-03-27T11:08:10.328Z,52.00
2018-03-27T11:10:38.114Z,52.00
2018-03-27T11:13:06.688Z,51.70
2018-03-27T11:15:35.405Z,51.10
2018-03-27T11:18:04.551Z,51.50
2018-03-27T11:20:32.424Z,51.50
2018-03-27T11:23:00.077Z,52.60
2018-03-27T11:25:28.041Z,52.40
2018-03-27T11:27:56.597Z,54.10
2018-03-27T11:30:24.557Z,53.70
2018-03-27T11:32:52.585Z,52.20
2018-03-27T11:35:20.488Z,51.50
2018-03-27T11:37:48.634Z,51.60
2018-03-27T11:40:16.771Z,53.10
2018-03-27T11:42:45.237Z,54.40
2018-03-27T11:45:13.193Z,55.90
2018-03-27T11:47:41.209Z,59.30
2018-03-27T11:50:09.223Z,62.20
2018-03-27T11:52:38.224Z,64.20
2018-03-27T11:55:06.064Z,66.90
2018-03-27T11:57:34.741Z,73.30
2018-03-27T12:00:02.727Z,73.30
2018-03-27T12:02:30.952Z,76.40
2018-03-27T12:04:58.636Z,75.70
2018-03-27T12:07:27.416Z,77.50
2018-03-27T12:09:55.316Z,77.40
2018-03-27T12:12:23.283Z,78.50
2018-03-27T12:14:51.304Z,78.30
2018-03-27T12:17:19.697Z,77.30
2018-03-27T12:19:47.917Z,77.80
2018-03-27T12:22:16.542Z,74.80
2018-03-27T12:24:44.406Z,74.90
2018-03-27T12:27:12.370Z,73.90
2018-03-27T12:29:42.136Z,72.20
2018-03-27T12:32:09.976Z,72.60
2018-03-27T12:34:38.763Z,72.90
2018-03-27T12:37:06.731Z,72.90
2018-03-27T12:39:34.620Z,72.30
2018-03-27T12:42:02.502Z,72.30
2018-03-27T12:44:30.452Z,70.10
2018-03-27T12:46:58.394Z,70.30
2018-03-27T12:49:26.301Z,71.40
2018-03-27T12:51:54.853Z,71.30
2018-03-27T12:54:22.680Z,71.30
2018-03-27T12:56:50.461Z,69.80
2018-03-27T12:59:18.331Z,68.70
2018-03-27T13:01:47.407Z,69.40
2018-03-27T13:04:15.438Z,68.00
2018-03-27T13:06:45.659Z,66.80
2018-03-27T13:09:14.425Z,67.40
2018-03-27T13:11:42.246Z,67.40
2018-03-27T13:14:10.255Z,68.40
2018-03-27T13:16:39.025Z,66.20
2018-03-27T13:19:06.985Z,66.10
2018-03-27T13:21:35.046Z,67.20
2018-03-27T13:24:03.031Z,66.40
2018-03-27T13:26:31.099Z,67.00
2018-03-27T13:28:59.045Z,64.90
2018-03-27T13:31:27.125Z,62.50
2018-03-27T13:33:55.045Z,61.20
2018-03-27T13:36:23.125Z,65.60
2018-03-27T13:38:51.044Z,64.90
2018-03-27T13:41:18.907Z,63.60
2018-03-27T13:43:46.832Z,63.10
2018-03-27T13:46:15.739Z,63.70
2018-03-27T13:48:43.604Z,62.80
2018-03-27T13:51:11.441Z,62.60
2018-03-27T13:53:40.077Z,59.60
2018-03-27T13:56:08.148Z,60.50
2018-03-27T13:58:36.077Z,62.30
2018-03-27T14:01:03.927Z,61.30
2018-03-27T14:03:32.394Z,60.20
2018-03-27T14:06:00.300Z,63.20
2018-03-27T14:08:28.310Z,62.10
2018-03-27T14:10:56.362Z,61.50
2018-03-27T14:13:24.096Z,61.10
2018-03-27T14:15:52.077Z,60.70
2018-03-27T14:18:19.983Z,60.30
2018-03-27T14:20:47.851Z,60.60
2018-03-27T14:23:15.620Z,61.40
2018-03-27T14:25:43.323Z,61.50
2018-03-27T14:28:11.745Z,61.70
2018-03-27T14:30:42.551Z,61.40
2018-03-27T14:33:10.508Z,62.90
2018-03-27T14:35:38.417Z,63.90
2018-03-27T14:38:06.513Z,64.40
2018-03-27T14:40:34.324Z,64.90
2018-03-27T14:43:02.311Z,63.90
2018-03-27T14:45:30.357Z,64.00
2018-03-27T14:47:59.076Z,64.20
2018-03-27T14:50:26.913Z,63.90
2018-03-27T14:52:54.937Z,64.20
2018-03-27T14:55:23.606Z,64.00
2018-03-27T14:57:51.624Z,63.90
2018-03-27T15:00:19.390Z,63.10
2018-03-27T15:02:47.270Z,62.80
2018-03-27T15:05:16.018Z,62.30
2018-03-27T15:07:43.932Z,62.30
2018-03-27T15:10:11.990Z,61.40
2018-03-27T15:12:39.994Z,62.90
2018-03-27T15:15:08.806Z,62.80
2018-03-27T15:17:36.805Z,62.70
2018-03-27T15:20:05.168Z,62.90
2018-03-27T15:22:33.227Z,62.00
2018-03-27T15:25:00.995Z,62.30
2018-03-27T15:27:29.032Z,62.30
2018-03-27T15:29:57.811Z,62.90
2018-03-27T15:32:25.737Z,62.90
2018-03-27T15:34:53.875Z,62.60
2018-03-27T15:37:22.499Z,61.10
2018-03-27T15:39:51.353Z,62.10
2018-03-27T15:42:19.201Z,62.10
2018-03-27T15:44:50.682Z,62.40
2018-03-27T15:47:18.582Z,62.90
2018-03-27T15:49:46.655Z,63.50
2018-03-27T15:52:14.600Z,64.10
2018-03-27T15:54:42.710Z,64.80
2018-03-27T15:57:12.188Z,68.10
2018-03-27T15:59:41.178Z,68.10
2018-03-27T16:02:09.080Z,70.20
2018-03-27T16:04:37.170Z,70.90
2018-03-27T16:07:06.194Z,71.90
2018-03-27T16:09:34.382Z,72.30
2018-03-27T16:12:02.444Z,72.80
2018-03-27T16:14:31.700Z,73.60
2018-03-27T16:16:59.944Z,74.30
2018-03-27T16:19:27.968Z,74.00
2018-03-27T16:21:55.916Z,73.70
2018-03-27T16:24:23.920Z,74.20
2018-03-27T16:26:52.912Z,73.70
2018-03-27T16:29:21.503Z,74.30
2018-03-27T16:31:50.150Z,74.30
2018-03-27T16:34:18.087Z,74.90
2018-03-27T16:36:46.000Z,74.80
2018-03-27T16:39:13.942Z,74.80
2018-03-27T16:41:41.725Z,75.00
2018-03-27T16:44:09.513Z,75.00
2018-03-27T16:46:37.604Z,75.30
2018-03-27T16:49:06.268Z,75.50
2018-03-27T16:51:35.063Z,75.70
2018-03-27T16:54:03.315Z,75.70
2018-03-27T16:56:31.605Z,76.00
2018-03-27T16:58:59.607Z,76.30
2018-03-27T17:01:27.668Z,76.40
2018-03-27T17:03:55.569Z,76.70
2018-03-27T17:06:24.105Z,77.00
2018-03-27T17:08:52.113Z,78.30
2018-03-27T17:11:20.677Z,80.40
2018-03-27T17:13:48.814Z,81.50
2018-03-27T17:16:17.453Z,81.90
2018-03-27T17:18:45.488Z,81.90
2018-03-27T17:21:13.662Z,83.00
2018-03-27T17:23:46.533Z,83.60
2018-03-27T17:26:14.494Z,83.40
2018-03-27T17:28:45.604Z,84.50
2018-03-27T17:31:14.165Z,84.20
2018-03-27T17:33:43.027Z,84.60
2018-03-27T17:36:11.023Z,84.90
2018-03-27T17:38:39.054Z,85.60
2018-03-27T17:41:07.514Z,85.70
2018-03-27T17:43:35.552Z,85.70
2018-03-27T17:46:03.319Z,86.00
2018-03-27T17:48:32.161Z,86.00
2018-03-27T17:51:00.125Z,86.90
2018-03-27T17:53:28.836Z,87.30
2018-03-27T17:55:57.463Z,87.30
2018-03-27T17:58:25.447Z,86.30
2018-03-27T18:00:53.480Z,87.40
2018-03-27T18:03:22.834Z,87.60
2018-03-27T18:05:50.804Z,87.60
2018-03-27T18:08:19.737Z,88.00
2018-03-27T18:10:50.021Z,87.80
2018-03-27T18:13:18.069Z,88.10
2018-03-27T18:15:46.245Z,87.80
2018-03-27T18:18:14.153Z,87.90
2018-03-27T18:20:42.590Z,87.60
2018-03-27T18:23:10.501Z,87.80
2018-03-27T18:25:38.750Z,87.40
2018-03-27T18:28:07.635Z,87.40
2018-03-27T18:30:38.398Z,87.30
2018-03-27T18:33:06.391Z,87.10
2018-03-27T18:35:34.351Z,87.20
2018-03-27T18:38:02.343Z,87.50
2018-03-27T18:40:30.279Z,87.20
2018-03-27T18:42:58.280Z,86.90
2018-03-27T18:45:27.744Z,86.70
2018-03-27T18:47:55.809Z,86.70
2018-03-27T18:50:24.456Z,86.60
2018-03-27T18:52:52.315Z,86.60
2018-03-27T18:55:21.854Z,86.60
2018-03-27T18:57:49.829Z,86.70
2018-03-27T19:00:18.761Z,86.30
2018-03-27T19:02:46.827Z,86.20
2018-03-27T19:05:14.908Z,86.20
2018-03-27T19:07:42.926Z,85.80
2018-03-27T19:10:12.836Z,85.90
2018-03-27T19:12:40.791Z,85.90
2018-03-27T19:15:08.480Z,85.10
2018-03-27T19:17:37.322Z,85.20
2018-03-27T19:20:05.210Z,85.30
2018-03-27T19:22:33.155Z,85.20
2018-03-27T19:25:00.977Z,85.10
2018-03-27T19:27:29.119Z,85.20
2018-03-27T19:29:57.846Z,85.00
2018-03-27T19:32:25.876Z,85.00
2018-03-27T19:34:53.875Z,84.80
2018-03-27T19:37:22.784Z,84.90
2018-03-27T19:39:50.661Z,84.70
2018-03-27T19:42:18.632Z,85.00
2018-03-27T19:44:46.526Z,84.70
2018-03-27T19:47:14.537Z,84.60
2018-03-27T19:49:42.285Z,84.90
2018-03-27T19:52:10.347Z,85.10
2018-03-27T19:54:38.232Z,85.00
2018-03-27T19:57:06.274Z,84.90
2018-03-27T19:59:35.024Z,85.30
2018-03-27T20:02:03.018Z,85.20
2018-03-27T20:04:31.582Z,85.20
2018-03-27T20:07:00.265Z,85.30
2018-03-27T20:09:28.333Z,85.30
2018-03-27T20:11:57.031Z,85.40
2018-03-27T20:14:25.335Z,85.40
2018-03-27T20:16:53.300Z,85.30
2018-03-27T20:19:21.237Z,85.10
2018-03-27T20:21:49.212Z,85.20
2018-03-27T20:24:17.138Z,85.40
2018-03-27T20:26:45.921Z,86.00
2018-03-27T20:29:13.917Z,85.90
2018-03-27T20:31:42.955Z,85.90
2018-03-27T20:34:10.840Z,85.80
2018-03-27T20:36:38.675Z,85.80
2018-03-27T20:39:06.593Z,86.10
2018-03-27T20:41:34.421Z,86.20
2018-03-27T20:44:02.148Z,86.00
2018-03-27T20:46:30.111Z,85.90
2018-03-27T20:48:58.097Z,85.10
2018-03-27T20:51:25.885Z,85.70
2018-03-27T20:53:53.858Z,85.00
2018-03-27T20:56:21.730Z,85.70
2018-03-27T20:58:50.729Z,85.70
2018-03-27T21:01:18.624Z,86.20
2018-03-27T21:03:46.701Z,85.10
2018-03-27T21:06:14.656Z,85.70
2018-03-27T21:08:42.595Z,85.50
2018-03-27T21:11:10.988Z,85.40
2018-03-27T21:13:39.020Z,85.60
2018-03-27T21:16:07.850Z,86.00
2018-03-27T21:18:35.694Z,85.80
2018-03-27T21:21:03.483Z,86.00
2018-03-27T21:23:31.335Z,85.50
2018-03-27T21:25:59.378Z,85.20
2018-03-27T21:28:28.056Z,85.80
2018-03-27T21:30:55.948Z,85.70
2018-03-27T21:33:25.859Z,86.40
2018-03-27T21:35:53.772Z,86.30
2018-03-27T21:38:21.715Z,85.90
2018-03-27T21:40:49.810Z,85.90
2018-03-27T21:43:17.816Z,86.40
2018-03-27T21:45:46.532Z,85.80
2018-03-27T21:48:14.437Z,86.10
2018-03-27T21:50:43.722Z,86.60
2018-03-27T21:53:11.662Z,87.30
2018-03-27T21:55:39.432Z,87.70
2018-03-27T21:58:08.785Z,88.30
2018-03-27T22:00:37.668Z,88.20
2018-03-27T22:03:06.326Z,87.80
2018-03-27T22:05:35.069Z,87.70
2018-03-27T22:08:03.754Z,87.70
2018-03-27T22:10:31.663Z,87.60
2018-03-27T22:12:59.624Z,87.70
2018-03-27T22:15:27.433Z,87.70
2018-03-27T22:17:57.143Z,87.80
2018-03-27T22:20:26.402Z,87.90
2018-03-27T22:22:54.348Z,87.50
2018-03-27T22:25:22.114Z,87.50
2018-03-27T22:27:49.825Z,87.40
2018-03-27T22:30:18.410Z,87.40
2018-03-27T22:32:46.108Z,87.30
2018-03-27T22:35:14.612Z,86.70
2018-03-27T22:37:43.355Z,86.70
2018-03-27T22:40:11.230Z,86.60
2018-03-27T22:42:39.076Z,87.00
2018-03-27T22:45:06.938Z,86.60
2018-03-27T22:47:34.894Z,86.80
2018-03-27T22:50:03.486Z,86.00
2018-03-27T22:52:32.180Z,86.60
2018-03-27T22:55:00.014Z,86.40
2018-03-27T22:57:27.793Z,86.60
2018-03-27T22:59:55.500Z,87.00
2018-03-27T23:02:23.280Z,86.90
2018-03-27T23:04:50.952Z,86.10
2018-03-27T23:07:18.717Z,85.60
2018-03-27T23:09:47.242Z,85.70
2018-03-27T23:12:15.078Z,85.70
2018-03-27T23:14:42.857Z,86.40
2018-03-27T23:17:10.500Z,87.10
2018-03-27T23:19:38.250Z,87.20
2018-03-27T23:22:06.776Z,86.80
2018-03-27T23:24:34.674Z,86.80
2018-03-27T23:27:02.435Z,86.50
2018-03-27T23:29:30.136Z,86.80
2018-03-27T23:31:58.492Z,87.00
2018-03-27T23:34:28.060Z,86.90
2018-03-27T23:36:55.692Z,87.10
2018-03-27T23:39:24.013Z,86.50
2018-03-27T23:41:52.541Z,86.60
2018-03-27T23:44:20.960Z,86.90
2018-03-27T23:46:48.792Z,86.70
2018-03-27T23:49:16.770Z,86.80
2018-03-27T23:51:44.590Z,86.40
2018-03-27T23:54:13.307Z,86.70
2018-03-27T23:56:41.243Z,86.70
2018-03-27T23:59:08.990Z,87.00
